sensor_id;sensor_type;location;lat;lon;timestamp;P1;durP1;ratioP1;P2;durP2;ratioP2
39620;SDS011;25309;48.686;9.170;2023-09-19T00:00:21;2.40;;;1.00;;
39620;SDS011;25309;48.686;9.170;2023-09-19T00:02:52;2.57;;;1.60;;
39620;SDS011;25309;48.686;9.170;2023-09-19T00:05:20;1.90;;;1.10;;
39620;SDS011;25309;48.686;9.170;2023-09-19T00:07:50;2.57;;;1.00;;
39620;SDS011;25309;48.686;9.170;2023-09-19T00:10:21;3.43;;;1.20;;
39620;SDS011;25309;48.686;9.170;2023-09-19T00:12:50;1.70;;;1.03;;
39620;SDS011;25309;48.686;9.170;2023-09-19T00:15:21;2.97;;;1.20;;
39620;SDS011;25309;48.686;9.170;2023-09-19T00:17:48;2.63;;;1.10;;
39620;SDS011;25309;48.686;9.170;2023-09-19T00:20:18;1.47;;;0.83;;
39620;SDS011;25309;48.686;9.170;2023-09-19T00:22:45;1.47;;;1.17;;
39620;SDS011;25309;48.686;9.170;2023-09-19T00:25:12;1.47;;;1.00;;
39620;SDS011;25309;48.686;9.170;2023-09-19T00:27:42;1.53;;;1.37;;
39620;SDS011;25309;48.686;9.170;2023-09-19T00:30:11;2.23;;;1.10;;
39620;SDS011;25309;48.686;9.170;2023-09-19T00:32:48;1.03;;;0.97;;
39620;SDS011;25309;48.686;9.170;2023-09-19T00:35:18;2.07;;;1.30;;
39620;SDS011;25309;48.686;9.170;2023-09-19T00:37:45;2.30;;;1.10;;
39620;SDS011;25309;48.686;9.170;2023-09-19T00:40:12;1.97;;;1.00;;
39620;SDS011;25309;48.686;9.170;2023-09-19T00:42:41;2.23;;;0.90;;
39620;SDS011;25309;48.686;9.170;2023-09-19T00:45:10;3.30;;;0.90;;
39620;SDS011;25309;48.686;9.170;2023-09-19T00:47:39;1.93;;;1.00;;
39620;SDS011;25309;48.686;9.170;2023-09-19T00:50:07;1.50;;;1.00;;
39620;SDS011;25309;48.686;9.170;2023-09-19T00:52:37;1.90;;;1.00;;
39620;SDS011;25309;48.686;9.170;2023-09-19T00:55:05;0.83;;;0.70;;
39620;SDS011;25309;48.686;9.170;2023-09-19T00:57:33;1.80;;;1.17;;
39620;SDS011;25309;48.686;9.170;2023-09-19T01:00:01;1.73;;;0.80;;
39620;SDS011;25309;48.686;9.170;2023-09-19T01:02:34;1.83;;;0.90;;
39620;SDS011;25309;48.686;9.170;2023-09-19T01:05:02;2.20;;;1.10;;
39620;SDS011;25309;48.686;9.170;2023-09-19T01:07:31;1.60;;;0.97;;
39620;SDS011;25309;48.686;9.170;2023-09-19T01:10:00;1.10;;;0.80;;
39620;SDS011;25309;48.686;9.170;2023-09-19T01:12:33;1.27;;;1.10;;
39620;SDS011;25309;48.686;9.170;2023-09-19T01:15:11;2.63;;;1.00;;
39620;SDS011;25309;48.686;9.170;2023-09-19T01:17:53;2.10;;;0.90;;
39620;SDS011;25309;48.686;9.170;2023-09-19T01:20:27;2.10;;;0.80;;
39620;SDS011;25309;48.686;9.170;2023-09-19T01:23:07;1.73;;;1.00;;
39620;SDS011;25309;48.686;9.170;2023-09-19T01:28:43;1.43;;;0.90;;
39620;SDS011;25309;48.686;9.170;2023-09-19T01:31:22;3.47;;;1.10;;
39620;SDS011;25309;48.686;9.170;2023-09-19T01:33:55;1.60;;;0.90;;
39620;SDS011;25309;48.686;9.170;2023-09-19T01:36:27;1.33;;;1.00;;
39620;SDS011;25309;48.686;9.170;2023-09-19T01:38:57;1.13;;;1.00;;
39620;SDS011;25309;48.686;9.170;2023-09-19T01:41:29;1.67;;;0.90;;
39620;SDS011;25309;48.686;9.170;2023-09-19T01:44:06;2.13;;;1.00;;
39620;SDS011;25309;48.686;9.170;2023-09-19T01:46:39;0.70;;;0.70;;
39620;SDS011;25309;48.686;9.170;2023-09-19T01:49:11;0.87;;;0.70;;
39620;SDS011;25309;48.686;9.170;2023-09-19T01:51:50;2.07;;;0.93;;
39620;SDS011;25309;48.686;9.170;2023-09-19T01:54:26;2.77;;;1.00;;
39620;SDS011;25309;48.686;9.170;2023-09-19T01:56:57;1.47;;;0.90;;
39620;SDS011;25309;48.686;9.170;2023-09-19T01:59:32;1.40;;;0.83;;
39620;SDS011;25309;48.686;9.170;2023-09-19T02:02:05;1.30;;;1.10;;
39620;SDS011;25309;48.686;9.170;2023-09-19T02:04:35;1.37;;;0.97;;
39620;SDS011;25309;48.686;9.170;2023-09-19T02:07:02;2.47;;;0.97;;
39620;SDS011;25309;48.686;9.170;2023-09-19T02:09:32;4.23;;;1.10;;
39620;SDS011;25309;48.686;9.170;2023-09-19T02:12:01;1.53;;;0.90;;
39620;SDS011;25309;48.686;9.170;2023-09-19T02:14:30;2.70;;;1.10;;
39620;SDS011;25309;48.686;9.170;2023-09-19T02:16:58;1.33;;;1.00;;
39620;SDS011;25309;48.686;9.170;2023-09-19T02:19:27;2.47;;;1.10;;
39620;SDS011;25309;48.686;9.170;2023-09-19T02:21:56;1.37;;;0.90;;
39620;SDS011;25309;48.686;9.170;2023-09-19T02:24:23;1.30;;;0.90;;
39620;SDS011;25309;48.686;9.170;2023-09-19T02:26:50;2.03;;;1.00;;
39620;SDS011;25309;48.686;9.170;2023-09-19T02:29:18;2.30;;;1.00;;
39620;SDS011;25309;48.686;9.170;2023-09-19T02:31:45;1.47;;;0.97;;
39620;SDS011;25309;48.686;9.170;2023-09-19T02:34:13;2.63;;;1.00;;
39620;SDS011;25309;48.686;9.170;2023-09-19T02:36:44;2.30;;;1.07;;
39620;SDS011;25309;48.686;9.170;2023-09-19T02:39:11;1.37;;;0.90;;
39620;SDS011;25309;48.686;9.170;2023-09-19T02:41:38;1.90;;;1.00;;
39620;SDS011;25309;48.686;9.170;2023-09-19T02:44:05;1.67;;;1.00;;
39620;SDS011;25309;48.686;9.170;2023-09-19T02:46:34;1.53;;;1.30;;
39620;SDS011;25309;48.686;9.170;2023-09-19T02:49:02;1.30;;;1.07;;
39620;SDS011;25309;48.686;9.170;2023-09-19T02:51:33;3.13;;;1.00;;
39620;SDS011;25309;48.686;9.170;2023-09-19T02:54:01;2.33;;;1.20;;
39620;SDS011;25309;48.686;9.170;2023-09-19T02:56:31;2.00;;;1.00;;
39620;SDS011;25309;48.686;9.170;2023-09-19T02:58:58;1.80;;;1.00;;
39620;SDS011;25309;48.686;9.170;2023-09-19T03:01:27;1.40;;;0.80;;
39620;SDS011;25309;48.686;9.170;2023-09-19T03:03:57;1.00;;;0.90;;
39620;SDS011;25309;48.686;9.170;2023-09-19T03:06:25;3.17;;;1.23;;
39620;SDS011;25309;48.686;9.170;2023-09-19T03:08:52;2.50;;;1.27;;
39620;SDS011;25309;48.686;9.170;2023-09-19T03:11:22;2.37;;;1.23;;
39620;SDS011;25309;48.686;9.170;2023-09-19T03:13:53;2.30;;;1.20;;
39620;SDS011;25309;48.686;9.170;2023-09-19T03:16:21;3.80;;;1.10;;
39620;SDS011;25309;48.686;9.170;2023-09-19T03:18:51;2.07;;;1.00;;
39620;SDS011;25309;48.686;9.170;2023-09-19T03:21:18;2.47;;;1.10;;
39620;SDS011;25309;48.686;9.170;2023-09-19T03:23:46;2.73;;;1.17;;
39620;SDS011;25309;48.686;9.170;2023-09-19T03:26:13;1.70;;;1.10;;
39620;SDS011;25309;48.686;9.170;2023-09-19T03:28:43;2.33;;;1.10;;
39620;SDS011;25309;48.686;9.170;2023-09-19T03:31:12;1.90;;;1.00;;
39620;SDS011;25309;48.686;9.170;2023-09-19T03:33:39;1.70;;;1.10;;
39620;SDS011;25309;48.686;9.170;2023-09-19T03:36:07;1.63;;;1.30;;
39620;SDS011;25309;48.686;9.170;2023-09-19T03:38:34;1.30;;;0.90;;
39620;SDS011;25309;48.686;9.170;2023-09-19T03:41:02;2.57;;;1.20;;
39620;SDS011;25309;48.686;9.170;2023-09-19T03:43:29;1.87;;;1.10;;
39620;SDS011;25309;48.686;9.170;2023-09-19T03:46:00;3.13;;;1.20;;
39620;SDS011;25309;48.686;9.170;2023-09-19T03:48:30;2.30;;;1.33;;
39620;SDS011;25309;48.686;9.170;2023-09-19T03:50:57;1.10;;;1.00;;
39620;SDS011;25309;48.686;9.170;2023-09-19T03:53:25;2.37;;;1.17;;
39620;SDS011;25309;48.686;9.170;2023-09-19T03:55:52;1.20;;;1.10;;
39620;SDS011;25309;48.686;9.170;2023-09-19T03:58:19;4.43;;;1.53;;
39620;SDS011;25309;48.686;9.170;2023-09-19T04:00:47;3.80;;;1.70;;
39620;SDS011;25309;48.686;9.170;2023-09-19T04:03:17;2.30;;;1.30;;
39620;SDS011;25309;48.686;9.170;2023-09-19T04:05:47;2.20;;;1.60;;
39620;SDS011;25309;48.686;9.170;2023-09-19T04:08:14;2.50;;;1.47;;
39620;SDS011;25309;48.686;9.170;2023-09-19T04:10:42;2.77;;;1.30;;
39620;SDS011;25309;48.686;9.170;2023-09-19T04:13:10;3.20;;;1.40;;
39620;SDS011;25309;48.686;9.170;2023-09-19T04:15:37;3.93;;;1.40;;
39620;SDS011;25309;48.686;9.170;2023-09-19T04:18:04;1.80;;;1.20;;
39620;SDS011;25309;48.686;9.170;2023-09-19T04:20:33;2.40;;;1.23;;
39620;SDS011;25309;48.686;9.170;2023-09-19T04:23:00;2.70;;;1.40;;
39620;SDS011;25309;48.686;9.170;2023-09-19T04:25:27;1.93;;;1.40;;
39620;SDS011;25309;48.686;9.170;2023-09-19T04:27:54;3.30;;;1.67;;
39620;SDS011;25309;48.686;9.170;2023-09-19T04:30:21;2.07;;;1.30;;
39620;SDS011;25309;48.686;9.170;2023-09-19T04:32:48;1.97;;;1.30;;
39620;SDS011;25309;48.686;9.170;2023-09-19T04:35:18;2.43;;;1.40;;
39620;SDS011;25309;48.686;9.170;2023-09-19T04:37:46;3.27;;;1.30;;
39620;SDS011;25309;48.686;9.170;2023-09-19T04:40:14;3.60;;;1.30;;
39620;SDS011;25309;48.686;9.170;2023-09-19T04:42:44;2.27;;;1.27;;
39620;SDS011;25309;48.686;9.170;2023-09-19T04:45:12;2.50;;;1.17;;
39620;SDS011;25309;48.686;9.170;2023-09-19T04:47:39;4.03;;;1.20;;
39620;SDS011;25309;48.686;9.170;2023-09-19T04:50:07;1.90;;;1.20;;
39620;SDS011;25309;48.686;9.170;2023-09-19T04:52:40;2.03;;;1.37;;
39620;SDS011;25309;48.686;9.170;2023-09-19T04:55:10;1.30;;;1.10;;
39620;SDS011;25309;48.686;9.170;2023-09-19T04:57:37;1.97;;;1.20;;
39620;SDS011;25309;48.686;9.170;2023-09-19T05:00:05;2.03;;;1.33;;
39620;SDS011;25309;48.686;9.170;2023-09-19T05:02:38;2.33;;;1.23;;
39620;SDS011;25309;48.686;9.170;2023-09-19T05:05:06;2.17;;;1.23;;
39620;SDS011;25309;48.686;9.170;2023-09-19T05:07:34;6.37;;;4.03;;
39620;SDS011;25309;48.686;9.170;2023-09-19T05:10:01;4.27;;;2.70;;
39620;SDS011;25309;48.686;9.170;2023-09-19T05:12:33;4.87;;;2.40;;
39620;SDS011;25309;48.686;9.170;2023-09-19T05:15:01;3.60;;;2.47;;
39620;SDS011;25309;48.686;9.170;2023-09-19T05:17:29;5.90;;;2.73;;
39620;SDS011;25309;48.686;9.170;2023-09-19T05:19:56;2.40;;;1.77;;
39620;SDS011;25309;48.686;9.170;2023-09-19T05:22:25;3.27;;;1.77;;
39620;SDS011;25309;48.686;9.170;2023-09-19T05:24:53;3.13;;;1.80;;
39620;SDS011;25309;48.686;9.170;2023-09-19T05:27:20;3.47;;;1.77;;
39620;SDS011;25309;48.686;9.170;2023-09-19T05:29:49;3.80;;;1.90;;
39620;SDS011;25309;48.686;9.170;2023-09-19T05:32:19;2.43;;;1.77;;
39620;SDS011;25309;48.686;9.170;2023-09-19T05:34:46;2.73;;;1.80;;
39620;SDS011;25309;48.686;9.170;2023-09-19T05:37:13;4.47;;;1.80;;
39620;SDS011;25309;48.686;9.170;2023-09-19T05:39:42;2.33;;;1.50;;
39620;SDS011;25309;48.686;9.170;2023-09-19T05:42:10;2.07;;;1.50;;
39620;SDS011;25309;48.686;9.170;2023-09-19T05:44:37;2.70;;;1.80;;
39620;SDS011;25309;48.686;9.170;2023-09-19T05:47:05;3.07;;;1.80;;
39620;SDS011;25309;48.686;9.170;2023-09-19T05:49:36;4.10;;;1.80;;
39620;SDS011;25309;48.686;9.170;2023-09-19T05:52:07;3.50;;;1.80;;
39620;SDS011;25309;48.686;9.170;2023-09-19T05:54:34;3.00;;;1.70;;
39620;SDS011;25309;48.686;9.170;2023-09-19T05:57:01;2.70;;;1.67;;
39620;SDS011;25309;48.686;9.170;2023-09-19T05:59:28;3.23;;;1.60;;
39620;SDS011;25309;48.686;9.170;2023-09-19T06:01:55;2.23;;;1.57;;
39620;SDS011;25309;48.686;9.170;2023-09-19T06:04:23;2.80;;;1.50;;
39620;SDS011;25309;48.686;9.170;2023-09-19T06:06:51;4.33;;;1.70;;
39620;SDS011;25309;48.686;9.170;2023-09-19T06:09:18;3.47;;;1.60;;
39620;SDS011;25309;48.686;9.170;2023-09-19T06:11:49;2.60;;;1.33;;
39620;SDS011;25309;48.686;9.170;2023-09-19T06:14:17;2.53;;;1.50;;
39620;SDS011;25309;48.686;9.170;2023-09-19T06:16:45;2.43;;;1.33;;
39620;SDS011;25309;48.686;9.170;2023-09-19T06:19:13;6.37;;;1.93;;
39620;SDS011;25309;48.686;9.170;2023-09-19T06:21:41;6.40;;;2.00;;
39620;SDS011;25309;48.686;9.170;2023-09-19T06:24:10;2.10;;;1.23;;
39620;SDS011;25309;48.686;9.170;2023-09-19T06:26:37;1.03;;;0.80;;
39620;SDS011;25309;48.686;9.170;2023-09-19T06:29:04;2.63;;;1.40;;
39620;SDS011;25309;48.686;9.170;2023-09-19T06:31:33;2.70;;;1.37;;
39620;SDS011;25309;48.686;9.170;2023-09-19T06:34:00;3.87;;;1.40;;
39620;SDS011;25309;48.686;9.170;2023-09-19T06:36:29;2.03;;;1.37;;
39620;SDS011;25309;48.686;9.170;2023-09-19T06:38:57;2.37;;;1.20;;
39620;SDS011;25309;48.686;9.170;2023-09-19T06:41:25;3.97;;;1.40;;
39620;SDS011;25309;48.686;9.170;2023-09-19T06:43:52;5.73;;;1.50;;
39620;SDS011;25309;48.686;9.170;2023-09-19T06:46:20;2.03;;;1.00;;
39620;SDS011;25309;48.686;9.170;2023-09-19T06:48:47;1.30;;;1.00;;
39620;SDS011;25309;48.686;9.170;2023-09-19T06:51:14;1.67;;;1.00;;
39620;SDS011;25309;48.686;9.170;2023-09-19T06:53:42;1.67;;;1.00;;
39620;SDS011;25309;48.686;9.170;2023-09-19T06:56:11;1.63;;;0.90;;
39620;SDS011;25309;48.686;9.170;2023-09-19T06:58:37;1.33;;;0.90;;
39620;SDS011;25309;48.686;9.170;2023-09-19T07:01:04;0.73;;;0.70;;
39620;SDS011;25309;48.686;9.170;2023-09-19T07:03:32;1.37;;;0.90;;
39620;SDS011;25309;48.686;9.170;2023-09-19T07:06:00;1.07;;;0.87;;
39620;SDS011;25309;48.686;9.170;2023-09-19T07:08:27;0.97;;;0.83;;
39620;SDS011;25309;48.686;9.170;2023-09-19T07:10:55;2.03;;;0.83;;
39620;SDS011;25309;48.686;9.170;2023-09-19T07:13:24;1.50;;;1.00;;
39620;SDS011;25309;48.686;9.170;2023-09-19T07:15:51;1.00;;;0.80;;
39620;SDS011;25309;48.686;9.170;2023-09-19T07:18:18;2.17;;;0.90;;
39620;SDS011;25309;48.686;9.170;2023-09-19T07:20:46;2.80;;;0.90;;
39620;SDS011;25309;48.686;9.170;2023-09-19T07:23:16;1.47;;;0.80;;
39620;SDS011;25309;48.686;9.170;2023-09-19T07:25:44;1.77;;;0.93;;
39620;SDS011;25309;48.686;9.170;2023-09-19T07:28:12;1.10;;;0.70;;
39620;SDS011;25309;48.686;9.170;2023-09-19T07:30:41;1.13;;;0.90;;
39620;SDS011;25309;48.686;9.170;2023-09-19T07:33:08;2.33;;;1.10;;
39620;SDS011;25309;48.686;9.170;2023-09-19T07:35:37;1.93;;;0.73;;
39620;SDS011;25309;48.686;9.170;2023-09-19T07:38:07;1.00;;;0.90;;
39620;SDS011;25309;48.686;9.170;2023-09-19T07:40:36;2.40;;;1.10;;
39620;SDS011;25309;48.686;9.170;2023-09-19T07:43:03;1.00;;;0.80;;
39620;SDS011;25309;48.686;9.170;2023-09-19T07:45:31;1.00;;;0.80;;
39620;SDS011;25309;48.686;9.170;2023-09-19T07:48:00;1.23;;;0.83;;
39620;SDS011;25309;48.686;9.170;2023-09-19T07:50:50;2.10;;;0.80;;
39620;SDS011;25309;48.686;9.170;2023-09-19T07:53:17;1.40;;;0.70;;
39620;SDS011;25309;48.686;9.170;2023-09-19T07:55:44;2.00;;;0.87;;
39620;SDS011;25309;48.686;9.170;2023-09-19T07:58:14;2.60;;;1.07;;
39620;SDS011;25309;48.686;9.170;2023-09-19T08:00:42;1.47;;;0.70;;
39620;SDS011;25309;48.686;9.170;2023-09-19T08:03:10;1.50;;;1.10;;
39620;SDS011;25309;48.686;9.170;2023-09-19T08:05:43;1.40;;;0.90;;
39620;SDS011;25309;48.686;9.170;2023-09-19T08:08:11;1.83;;;0.70;;
39620;SDS011;25309;48.686;9.170;2023-09-19T08:10:41;1.47;;;0.80;;
39620;SDS011;25309;48.686;9.170;2023-09-19T08:13:12;2.43;;;1.00;;
39620;SDS011;25309;48.686;9.170;2023-09-19T08:15:42;3.20;;;1.00;;
39620;SDS011;25309;48.686;9.170;2023-09-19T08:18:12;1.80;;;0.93;;
39620;SDS011;25309;48.686;9.170;2023-09-19T08:20:39;2.20;;;1.00;;
39620;SDS011;25309;48.686;9.170;2023-09-19T08:23:08;2.00;;;1.10;;
39620;SDS011;25309;48.686;9.170;2023-09-19T08:25:35;2.90;;;1.20;;
39620;SDS011;25309;48.686;9.170;2023-09-19T08:28:04;2.03;;;1.10;;
39620;SDS011;25309;48.686;9.170;2023-09-19T08:30:35;1.10;;;1.00;;
39620;SDS011;25309;48.686;9.170;2023-09-19T08:33:06;1.97;;;1.10;;
39620;SDS011;25309;48.686;9.170;2023-09-19T08:35:35;1.67;;;1.10;;
39620;SDS011;25309;48.686;9.170;2023-09-19T08:38:04;1.53;;;1.00;;
39620;SDS011;25309;48.686;9.170;2023-09-19T08:40:32;1.50;;;0.93;;
39620;SDS011;25309;48.686;9.170;2023-09-19T08:43:03;1.37;;;1.10;;
39620;SDS011;25309;48.686;9.170;2023-09-19T08:45:30;1.63;;;1.00;;
39620;SDS011;25309;48.686;9.170;2023-09-19T08:48:00;1.80;;;1.07;;
39620;SDS011;25309;48.686;9.170;2023-09-19T08:50:43;2.23;;;1.10;;
39620;SDS011;25309;48.686;9.170;2023-09-19T08:53:16;1.37;;;1.10;;
39620;SDS011;25309;48.686;9.170;2023-09-19T08:55:54;1.73;;;1.10;;
39620;SDS011;25309;48.686;9.170;2023-09-19T08:58:25;1.27;;;0.90;;
39620;SDS011;25309;48.686;9.170;2023-09-19T09:00:57;2.57;;;1.40;;
39620;SDS011;25309;48.686;9.170;2023-09-19T09:03:27;2.07;;;1.30;;
39620;SDS011;25309;48.686;9.170;2023-09-19T09:06:01;2.97;;;1.33;;
39620;SDS011;25309;48.686;9.170;2023-09-19T09:08:30;1.13;;;0.90;;
39620;SDS011;25309;48.686;9.170;2023-09-19T09:10:58;2.57;;;1.10;;
39620;SDS011;25309;48.686;9.170;2023-09-19T09:13:25;3.33;;;1.20;;
39620;SDS011;25309;48.686;9.170;2023-09-19T09:15:53;1.63;;;1.10;;
39620;SDS011;25309;48.686;9.170;2023-09-19T09:18:20;1.33;;;0.93;;
39620;SDS011;25309;48.686;9.170;2023-09-19T09:20:48;1.40;;;1.10;;
39620;SDS011;25309;48.686;9.170;2023-09-19T09:23:17;3.00;;;1.30;;
39620;SDS011;25309;48.686;9.170;2023-09-19T09:25:47;1.53;;;1.23;;
39620;SDS011;25309;48.686;9.170;2023-09-19T09:28:19;1.87;;;1.10;;
39620;SDS011;25309;48.686;9.170;2023-09-19T09:30:47;1.57;;;1.10;;
39620;SDS011;25309;48.686;9.170;2023-09-19T09:33:14;1.97;;;1.20;;
39620;SDS011;25309;48.686;9.170;2023-09-19T09:35:49;2.13;;;1.13;;
39620;SDS011;25309;48.686;9.170;2023-09-19T09:38:21;2.40;;;1.10;;
39620;SDS011;25309;48.686;9.170;2023-09-19T09:40:54;2.13;;;1.03;;
39620;SDS011;25309;48.686;9.170;2023-09-19T09:43:30;1.30;;;1.10;;
39620;SDS011;25309;48.686;9.170;2023-09-19T09:46:09;1.63;;;1.20;;
39620;SDS011;25309;48.686;9.170;2023-09-19T09:48:47;1.57;;;1.20;;
39620;SDS011;25309;48.686;9.170;2023-09-19T09:51:34;1.90;;;1.10;;
39620;SDS011;25309;48.686;9.170;2023-09-19T09:54:10;2.37;;;1.20;;
39620;SDS011;25309;48.686;9.170;2023-09-19T09:56:51;1.70;;;1.30;;
39620;SDS011;25309;48.686;9.170;2023-09-19T09:59:20;2.43;;;1.20;;
39620;SDS011;25309;48.686;9.170;2023-09-19T10:01:50;2.43;;;1.20;;
39620;SDS011;25309;48.686;9.170;2023-09-19T10:04:29;2.17;;;1.27;;
39620;SDS011;25309;48.686;9.170;2023-09-19T10:07:02;2.80;;;1.30;;
39620;SDS011;25309;48.686;9.170;2023-09-19T10:09:45;1.60;;;1.30;;
39620;SDS011;25309;48.686;9.170;2023-09-19T10:12:13;1.97;;;1.40;;
39620;SDS011;25309;48.686;9.170;2023-09-19T10:14:42;1.70;;;1.40;;
39620;SDS011;25309;48.686;9.170;2023-09-19T10:17:13;1.87;;;1.23;;
39620;SDS011;25309;48.686;9.170;2023-09-19T10:19:52;1.90;;;1.30;;
39620;SDS011;25309;48.686;9.170;2023-09-19T10:22:24;1.17;;;1.00;;
39620;SDS011;25309;48.686;9.170;2023-09-19T10:24:54;1.47;;;1.10;;
39620;SDS011;25309;48.686;9.170;2023-09-19T10:27:28;2.13;;;1.30;;
39620;SDS011;25309;48.686;9.170;2023-09-19T10:30:04;1.57;;;1.20;;
39620;SDS011;25309;48.686;9.170;2023-09-19T10:32:34;2.70;;;1.37;;
39620;SDS011;25309;48.686;9.170;2023-09-19T10:35:02;2.10;;;1.20;;
39620;SDS011;25309;48.686;9.170;2023-09-19T10:37:33;1.83;;;1.20;;
39620;SDS011;25309;48.686;9.170;2023-09-19T10:40:03;1.93;;;1.17;;
39620;SDS011;25309;48.686;9.170;2023-09-19T10:42:35;1.70;;;1.30;;
39620;SDS011;25309;48.686;9.170;2023-09-19T10:45:06;3.97;;;1.40;;
39620;SDS011;25309;48.686;9.170;2023-09-19T10:47:39;2.47;;;1.90;;
39620;SDS011;25309;48.686;9.170;2023-09-19T10:50:07;2.50;;;1.60;;
39620;SDS011;25309;48.686;9.170;2023-09-19T10:52:37;2.13;;;1.57;;
39620;SDS011;25309;48.686;9.170;2023-09-19T10:55:08;1.77;;;1.20;;
39620;SDS011;25309;48.686;9.170;2023-09-19T10:57:43;3.37;;;2.10;;
39620;SDS011;25309;48.686;9.170;2023-09-19T11:00:11;4.43;;;2.30;;
39620;SDS011;25309;48.686;9.170;2023-09-19T11:03:16;2.30;;;1.00;;
39620;SDS011;25309;48.686;9.170;2023-09-19T11:06:02;3.00;;;1.40;;
39620;SDS011;25309;48.686;9.170;2023-09-19T11:08:32;2.20;;;1.33;;
39620;SDS011;25309;48.686;9.170;2023-09-19T11:11:46;2.10;;;1.47;;
39620;SDS011;25309;48.686;9.170;2023-09-19T11:20:18;2.37;;;1.60;;
39620;SDS011;25309;48.686;9.170;2023-09-19T11:23:17;2.90;;;1.50;;
39620;SDS011;25309;48.686;9.170;2023-09-19T11:25:49;2.30;;;1.20;;
39620;SDS011;25309;48.686;9.170;2023-09-19T11:28:29;2.33;;;1.00;;
39620;SDS011;25309;48.686;9.170;2023-09-19T11:30:58;2.27;;;1.30;;
39620;SDS011;25309;48.686;9.170;2023-09-19T11:33:45;3.50;;;1.20;;
39620;SDS011;25309;48.686;9.170;2023-09-19T11:36:13;2.13;;;1.20;;
39620;SDS011;25309;48.686;9.170;2023-09-19T11:38:57;1.90;;;1.17;;
39620;SDS011;25309;48.686;9.170;2023-09-19T11:41:36;2.63;;;1.10;;
39620;SDS011;25309;48.686;9.170;2023-09-19T11:47:01;1.20;;;0.97;;
39620;SDS011;25309;48.686;9.170;2023-09-19T11:49:30;2.20;;;1.03;;
39620;SDS011;25309;48.686;9.170;2023-09-19T11:51:58;1.63;;;1.00;;
39620;SDS011;25309;48.686;9.170;2023-09-19T11:54:31;2.13;;;1.10;;
39620;SDS011;25309;48.686;9.170;2023-09-19T11:56:59;1.37;;;0.93;;
39620;SDS011;25309;48.686;9.170;2023-09-19T11:59:27;2.10;;;1.13;;
39620;SDS011;25309;48.686;9.170;2023-09-19T12:01:57;1.77;;;1.03;;
39620;SDS011;25309;48.686;9.170;2023-09-19T12:04:33;2.40;;;1.07;;
39620;SDS011;25309;48.686;9.170;2023-09-19T12:07:05;2.13;;;0.90;;
39620;SDS011;25309;48.686;9.170;2023-09-19T12:09:38;1.60;;;1.10;;
39620;SDS011;25309;48.686;9.170;2023-09-19T12:12:07;2.43;;;1.00;;
39620;SDS011;25309;48.686;9.170;2023-09-19T12:14:35;3.10;;;1.20;;
39620;SDS011;25309;48.686;9.170;2023-09-19T12:17:04;2.80;;;1.47;;
39620;SDS011;25309;48.686;9.170;2023-09-19T12:19:31;2.10;;;1.10;;
39620;SDS011;25309;48.686;9.170;2023-09-19T12:21:59;1.13;;;0.87;;
39620;SDS011;25309;48.686;9.170;2023-09-19T12:24:31;1.80;;;1.03;;
39620;SDS011;25309;48.686;9.170;2023-09-19T12:27:02;1.80;;;1.03;;
39620;SDS011;25309;48.686;9.170;2023-09-19T12:29:32;2.07;;;1.10;;
39620;SDS011;25309;48.686;9.170;2023-09-19T12:32:09;1.50;;;0.97;;
39620;SDS011;25309;48.686;9.170;2023-09-19T12:34:36;2.07;;;1.10;;
39620;SDS011;25309;48.686;9.170;2023-09-19T12:37:10;2.50;;;1.20;;
39620;SDS011;25309;48.686;9.170;2023-09-19T12:40:00;1.93;;;0.97;;
39620;SDS011;25309;48.686;9.170;2023-09-19T12:42:41;1.27;;;1.00;;
39620;SDS011;25309;48.686;9.170;2023-09-19T12:45:09;1.97;;;1.10;;
39620;SDS011;25309;48.686;9.170;2023-09-19T12:47:38;1.10;;;0.97;;
39620;SDS011;25309;48.686;9.170;2023-09-19T12:50:10;2.77;;;1.13;;
39620;SDS011;25309;48.686;9.170;2023-09-19T12:52:42;1.90;;;1.20;;
39620;SDS011;25309;48.686;9.170;2023-09-19T12:55:21;1.77;;;1.03;;
39620;SDS011;25309;48.686;9.170;2023-09-19T12:57:56;2.40;;;1.20;;
39620;SDS011;25309;48.686;9.170;2023-09-19T13:00:32;1.30;;;1.00;;
39620;SDS011;25309;48.686;9.170;2023-09-19T13:03:12;2.73;;;1.07;;
39620;SDS011;25309;48.686;9.170;2023-09-19T13:05:49;1.57;;;1.10;;
39620;SDS011;25309;48.686;9.170;2023-09-19T13:08:18;2.07;;;1.10;;
39620;SDS011;25309;48.686;9.170;2023-09-19T13:10:59;2.03;;;1.20;;
39620;SDS011;25309;48.686;9.170;2023-09-19T13:13:33;3.90;;;1.27;;
39620;SDS011;25309;48.686;9.170;2023-09-19T13:16:02;3.40;;;1.10;;
39620;SDS011;25309;48.686;9.170;2023-09-19T13:18:48;1.83;;;1.10;;
39620;SDS011;25309;48.686;9.170;2023-09-19T13:21:26;2.10;;;1.30;;
39620;SDS011;25309;48.686;9.170;2023-09-19T13:23:54;1.60;;;1.13;;
39620;SDS011;25309;48.686;9.170;2023-09-19T13:26:25;3.67;;;1.20;;
39620;SDS011;25309;48.686;9.170;2023-09-19T13:28:54;1.77;;;1.10;;
39620;SDS011;25309;48.686;9.170;2023-09-19T13:31:21;1.60;;;1.10;;
39620;SDS011;25309;48.686;9.170;2023-09-19T13:33:51;1.57;;;1.20;;
39620;SDS011;25309;48.686;9.170;2023-09-19T13:36:18;2.80;;;1.10;;
39620;SDS011;25309;48.686;9.170;2023-09-19T13:38:45;1.33;;;1.00;;
39620;SDS011;25309;48.686;9.170;2023-09-19T13:41:15;1.97;;;0.97;;
39620;SDS011;25309;48.686;9.170;2023-09-19T13:43:43;2.37;;;1.07;;
39620;SDS011;25309;48.686;9.170;2023-09-19T13:46:14;1.97;;;1.13;;
39620;SDS011;25309;48.686;9.170;2023-09-19T13:48:42;1.67;;;1.10;;
39620;SDS011;25309;48.686;9.170;2023-09-19T13:51:11;2.60;;;1.00;;
39620;SDS011;25309;48.686;9.170;2023-09-19T13:53:38;1.53;;;0.90;;
39620;SDS011;25309;48.686;9.170;2023-09-19T13:56:05;2.83;;;1.20;;
39620;SDS011;25309;48.686;9.170;2023-09-19T13:58:33;1.77;;;1.27;;
39620;SDS011;25309;48.686;9.170;2023-09-19T14:01:00;1.40;;;1.00;;
39620;SDS011;25309;48.686;9.170;2023-09-19T14:03:28;2.03;;;1.10;;
39620;SDS011;25309;48.686;9.170;2023-09-19T14:05:55;1.47;;;1.00;;
39620;SDS011;25309;48.686;9.170;2023-09-19T14:08:23;2.33;;;1.10;;
39620;SDS011;25309;48.686;9.170;2023-09-19T14:10:50;1.93;;;1.10;;
39620;SDS011;25309;48.686;9.170;2023-09-19T14:13:18;2.20;;;1.20;;
39620;SDS011;25309;48.686;9.170;2023-09-19T14:15:46;1.63;;;0.87;;
39620;SDS011;25309;48.686;9.170;2023-09-19T14:18:13;1.97;;;1.13;;
39620;SDS011;25309;48.686;9.170;2023-09-19T14:20:40;1.07;;;0.93;;
39620;SDS011;25309;48.686;9.170;2023-09-19T14:23:08;1.30;;;1.00;;
39620;SDS011;25309;48.686;9.170;2023-09-19T14:25:36;1.50;;;1.10;;
39620;SDS011;25309;48.686;9.170;2023-09-19T14:28:04;1.63;;;1.07;;
39620;SDS011;25309;48.686;9.170;2023-09-19T14:30:34;2.23;;;1.20;;
39620;SDS011;25309;48.686;9.170;2023-09-19T14:33:03;1.50;;;1.00;;
39620;SDS011;25309;48.686;9.170;2023-09-19T14:35:32;2.43;;;1.03;;
39620;SDS011;25309;48.686;9.170;2023-09-19T14:37:59;2.40;;;1.20;;
39620;SDS011;25309;48.686;9.170;2023-09-19T14:40:26;2.87;;;1.20;;
39620;SDS011;25309;48.686;9.170;2023-09-19T14:42:54;1.40;;;0.97;;
39620;SDS011;25309;48.686;9.170;2023-09-19T14:45:21;2.07;;;1.03;;
39620;SDS011;25309;48.686;9.170;2023-09-19T14:47:50;2.83;;;1.20;;
39620;SDS011;25309;48.686;9.170;2023-09-19T14:50:21;1.60;;;0.93;;
39620;SDS011;25309;48.686;9.170;2023-09-19T14:52:48;2.60;;;1.00;;
39620;SDS011;25309;48.686;9.170;2023-09-19T14:55:18;2.10;;;0.90;;
39620;SDS011;25309;48.686;9.170;2023-09-19T14:57:48;2.37;;;1.20;;
39620;SDS011;25309;48.686;9.170;2023-09-19T15:00:18;1.30;;;1.00;;
39620;SDS011;25309;48.686;9.170;2023-09-19T15:02:47;1.53;;;1.17;;
39620;SDS011;25309;48.686;9.170;2023-09-19T15:05:16;1.23;;;1.00;;
39620;SDS011;25309;48.686;9.170;2023-09-19T15:07:46;1.77;;;1.03;;
39620;SDS011;25309;48.686;9.170;2023-09-19T15:10:13;2.17;;;1.10;;
39620;SDS011;25309;48.686;9.170;2023-09-19T15:12:40;1.80;;;1.10;;
39620;SDS011;25309;48.686;9.170;2023-09-19T15:15:07;1.10;;;1.00;;
39620;SDS011;25309;48.686;9.170;2023-09-19T15:17:36;2.93;;;1.10;;